createdAt,value
2023-04-23T00:00:30.043Z,410.00
2023-04-23T00:01:30.091Z,410.00
2023-04-23T00:02:30.254Z,409.00
2023-04-23T00:03:30.402Z,408.00
2023-04-23T00:04:30.344Z,407.00
2023-04-23T00:05:30.429Z,406.00
2023-04-23T00:06:30.433Z,405.00
2023-04-23T00:07:30.484Z,407.00
2023-04-23T00:08:30.507Z,408.00
2023-04-23T00:09:30.568Z,409.00
2023-04-23T00:10:30.632Z,409.00
2023-04-23T00:11:30.743Z,410.00
2023-04-23T00:12:30.762Z,412.00
2023-04-23T00:13:30.842Z,410.00
2023-04-23T00:14:31.824Z,409.00
2023-04-23T00:15:30.973Z,408.00
2023-04-23T00:16:31.054Z,410.00
2023-04-23T00:17:31.124Z,411.00
2023-04-23T00:18:31.160Z,412.00
2023-04-23T00:19:31.211Z,412.00
2023-04-23T00:20:31.251Z,413.00
2023-04-23T00:21:31.311Z,413.00
2023-04-23T00:22:31.457Z,413.00
2023-04-23T00:23:31.471Z,411.00
2023-04-23T00:24:31.532Z,410.00
2023-04-23T00:25:31.605Z,410.00
2023-04-23T00:26:31.613Z,410.00
2023-04-23T00:27:31.695Z,411.00
2023-04-23T00:28:31.711Z,413.00
2023-04-23T00:29:31.808Z,413.00
2023-04-23T00:30:31.852Z,412.00
2023-04-23T00:31:31.939Z,410.00
2023-04-23T00:32:32.091Z,410.00
2023-04-23T00:33:32.061Z,408.00
2023-04-23T00:34:32.128Z,408.00
2023-04-23T00:35:32.202Z,410.00
2023-04-23T00:36:32.235Z,410.00
2023-04-23T00:37:32.311Z,410.00
2023-04-23T00:38:32.385Z,408.00
2023-04-23T00:39:32.436Z,407.00
2023-04-23T00:40:32.491Z,407.00
2023-04-23T00:41:32.557Z,409.00
2023-04-23T00:42:32.642Z,408.00
2023-04-23T00:43:32.704Z,409.00
2023-04-23T00:44:32.724Z,412.00
2023-04-23T00:45:32.849Z,413.00
2023-04-23T00:46:32.874Z,414.00
2023-04-23T00:47:32.990Z,414.00
2023-04-23T00:48:32.987Z,416.00
2023-04-23T00:49:33.051Z,415.00
2023-04-23T00:50:33.102Z,414.00
2023-04-23T00:51:33.149Z,412.00
2023-04-23T00:52:33.236Z,413.00
2023-04-23T00:53:33.262Z,414.00
2023-04-23T00:54:33.326Z,414.00
2023-04-23T00:55:33.370Z,414.00
2023-04-23T00:56:33.408Z,415.00
2023-04-23T00:57:33.482Z,414.00
2023-04-23T00:58:33.532Z,413.00
2023-04-23T00:59:33.568Z,415.00
2023-04-23T01:00:33.585Z,415.00
2023-04-23T01:01:33.705Z,413.00
2023-04-23T01:02:33.834Z,410.00
2023-04-23T01:03:33.813Z,408.00
2023-04-23T01:04:33.759Z,409.00
2023-04-23T01:05:33.850Z,411.00
2023-04-23T01:06:33.929Z,410.00
2023-04-23T01:07:33.953Z,409.00
2023-04-23T01:08:33.986Z,411.00
2023-04-23T01:09:34.069Z,413.00
2023-04-23T01:10:34.112Z,414.00
2023-04-23T01:11:34.167Z,415.00
2023-04-23T01:12:34.214Z,415.00
2023-04-23T01:13:34.274Z,414.00
2023-04-23T01:14:34.311Z,415.00
2023-04-23T01:15:34.370Z,415.00
2023-04-23T01:16:34.431Z,416.00
2023-04-23T01:17:34.600Z,416.00
2023-04-23T01:18:34.509Z,415.00
2023-04-23T01:19:34.563Z,413.00
2023-04-23T01:20:34.623Z,414.00
2023-04-23T01:21:34.731Z,414.00
2023-04-23T01:22:34.781Z,412.00
2023-04-23T01:23:34.806Z,412.00
2023-04-23T01:24:34.859Z,412.00
2023-04-23T01:25:34.898Z,410.00
2023-04-23T01:26:34.915Z,409.00
2023-04-23T01:27:34.978Z,409.00
2023-04-23T01:28:34.994Z,410.00
2023-04-23T01:29:35.025Z,410.00
2023-04-23T01:30:35.108Z,410.00
2023-04-23T01:31:35.084Z,412.00
2023-04-23T01:32:35.197Z,411.00
2023-04-23T01:33:35.206Z,412.00
2023-04-23T01:34:35.233Z,411.00
2023-04-23T01:35:35.272Z,409.00
2023-04-23T01:36:35.353Z,409.00
2023-04-23T01:37:35.376Z,410.00
2023-04-23T01:38:35.469Z,409.00
2023-04-23T01:39:35.519Z,409.00
2023-04-23T01:40:35.538Z,410.00
2023-04-23T01:41:35.628Z,410.00
2023-04-23T01:42:35.698Z,411.00
2023-04-23T01:43:35.740Z,411.00
2023-04-23T01:44:35.739Z,411.00
2023-04-23T01:45:35.792Z,412.00
2023-04-23T01:46:35.844Z,413.00
2023-04-23T01:47:35.947Z,414.00
2023-04-23T01:48:35.882Z,413.00
2023-04-23T01:49:36.003Z,412.00
2023-04-23T01:50:36.012Z,411.00
2023-04-23T01:51:36.042Z,410.00
2023-04-23T01:52:36.101Z,412.00
2023-04-23T01:53:36.123Z,411.00
2023-04-23T01:54:36.145Z,412.00
2023-04-23T01:55:36.179Z,414.00
2023-04-23T01:56:36.217Z,414.00
2023-04-23T01:57:36.237Z,410.00
2023-04-23T01:58:36.257Z,412.00
2023-04-23T01:59:36.254Z,410.00
2023-04-23T02:00:36.308Z,411.00
2023-04-23T02:01:36.323Z,411.00
2023-04-23T02:02:36.486Z,411.00
2023-04-23T02:03:36.581Z,415.00
2023-04-23T02:04:36.449Z,415.00
2023-04-23T02:05:36.440Z,417.00
2023-04-23T02:06:36.449Z,417.00
2023-04-23T02:07:36.518Z,415.00
2023-04-23T02:08:36.515Z,416.00
2023-04-23T02:09:36.534Z,417.00
2023-04-23T02:10:36.597Z,416.00
2023-04-23T02:11:36.665Z,413.00
2023-04-23T02:12:36.657Z,413.00
2023-04-23T02:13:36.710Z,412.00
2023-04-23T02:14:36.724Z,412.00
2023-04-23T02:15:36.756Z,413.00
2023-04-23T02:16:36.767Z,414.00
2023-04-23T02:17:36.926Z,413.00
2023-04-23T02:18:36.826Z,411.00
2023-04-23T02:19:36.815Z,410.00
2023-04-23T02:20:36.883Z,409.00
2023-04-23T02:21:36.862Z,409.00
2023-04-23T02:22:36.886Z,409.00
2023-04-23T02:23:36.884Z,412.00
2023-04-23T02:24:36.970Z,412.00
2023-04-23T02:25:36.952Z,409.00
2023-04-23T02:26:36.990Z,411.00
2023-04-23T02:27:37.017Z,412.00
2023-04-23T02:28:37.027Z,411.00
2023-04-23T02:29:37.048Z,410.00
2023-04-23T02:30:37.097Z,410.00
2023-04-23T02:31:37.176Z,408.00
2023-04-23T02:32:37.203Z,408.00
2023-04-23T02:33:37.140Z,407.00
2023-04-23T02:34:37.164Z,408.00
2023-04-23T02:35:37.218Z,407.00
2023-04-23T02:36:37.245Z,407.00
2023-04-23T02:37:37.317Z,407.00
2023-04-23T02:38:37.290Z,407.00
2023-04-23T02:39:37.308Z,408.00
2023-04-23T02:40:38.950Z,409.00
2023-04-23T02:41:37.317Z,411.00
2023-04-23T02:42:37.350Z,413.00
2023-04-23T02:43:37.342Z,414.00
2023-04-23T02:44:37.345Z,415.00
2023-04-23T02:45:37.332Z,414.00
2023-04-23T02:46:37.428Z,413.00
2023-04-23T02:47:37.421Z,413.00
2023-04-23T02:48:37.354Z,412.00
2023-04-23T02:49:37.386Z,413.00
2023-04-23T02:50:37.385Z,413.00
2023-04-23T02:51:37.418Z,413.00
2023-04-23T02:52:37.456Z,415.00
2023-04-23T02:53:37.426Z,417.00
2023-04-23T02:54:37.409Z,417.00
2023-04-23T02:55:37.386Z,418.00
2023-04-23T02:56:37.422Z,421.00
2023-04-23T02:57:37.415Z,419.00
2023-04-23T02:58:37.424Z,418.00
2023-04-23T02:59:37.406Z,417.00
2023-04-23T03:00:37.523Z,419.00
2023-04-23T03:01:37.436Z,418.00
2023-04-23T03:02:37.529Z,419.00
2023-04-23T03:03:37.747Z,419.00
2023-04-23T03:04:37.425Z,419.00
2023-04-23T03:05:37.453Z,418.00
2023-04-23T03:06:37.463Z,418.00
2023-04-23T03:07:37.480Z,417.00
2023-04-23T03:08:37.457Z,416.00
2023-04-23T03:09:37.480Z,416.00
2023-04-23T03:10:37.482Z,418.00
2023-04-23T03:11:37.484Z,417.00
2023-04-23T03:12:37.512Z,416.00
2023-04-23T03:13:37.525Z,414.00
2023-04-23T03:14:37.508Z,414.00
2023-04-23T03:15:37.506Z,414.00
2023-04-23T03:16:37.564Z,415.00
2023-04-23T03:17:37.511Z,414.00
2023-04-23T03:18:37.538Z,412.00
2023-04-23T03:19:37.507Z,414.00
2023-04-23T03:20:37.531Z,414.00
2023-04-23T03:21:37.506Z,415.00
2023-04-23T03:22:37.525Z,415.00
2023-04-23T03:23:37.524Z,413.00
2023-04-23T03:24:37.514Z,413.00
2023-04-23T03:25:37.502Z,412.00
2023-04-23T03:26:37.488Z,413.00
2023-04-23T03:27:39.034Z,412.00
2023-04-23T03:28:37.722Z,411.00
2023-04-23T03:29:37.732Z,410.00
2023-04-23T03:30:37.774Z,408.00
2023-04-23T03:31:37.792Z,409.00
2023-04-23T03:32:37.747Z,411.00
2023-04-23T03:33:37.724Z,412.00
2023-04-23T03:34:37.726Z,412.00
2023-04-23T03:35:37.746Z,414.00
2023-04-23T03:36:37.744Z,414.00
2023-04-23T03:37:37.709Z,412.00
2023-04-23T03:38:37.682Z,412.00
2023-04-23T03:39:37.676Z,412.00
2023-04-23T03:40:37.721Z,412.00
2023-04-23T03:41:37.687Z,413.00
2023-04-23T03:42:37.714Z,414.00
2023-04-23T03:43:37.682Z,414.00
2023-04-23T03:44:37.688Z,413.00
2023-04-23T03:45:37.701Z,412.00
2023-04-23T03:46:37.692Z,415.00
2023-04-23T03:47:37.763Z,417.00
2023-04-23T03:48:37.686Z,417.00
2023-04-23T03:49:37.634Z,415.00
2023-04-23T03:50:37.656Z,414.00
2023-04-23T03:51:37.656Z,414.00
2023-04-23T03:52:37.654Z,414.00
2023-04-23T03:53:37.659Z,413.00
2023-04-23T03:54:37.702Z,413.00
2023-04-23T03:55:37.621Z,415.00
2023-04-23T03:56:37.656Z,415.00
2023-04-23T03:57:37.648Z,413.00
2023-04-23T03:58:37.652Z,413.00
2023-04-23T03:59:37.609Z,413.00
2023-04-23T04:00:37.616Z,413.00
2023-04-23T04:01:37.629Z,414.00
2023-04-23T04:02:37.805Z,412.00
2023-04-23T04:03:37.755Z,413.00
2023-04-23T04:04:37.679Z,413.00
2023-04-23T04:05:37.634Z,412.00
2023-04-23T04:06:37.567Z,414.00
2023-04-23T04:07:37.590Z,415.00
2023-04-23T04:08:37.624Z,416.00
2023-04-23T04:09:37.585Z,415.00
2023-04-23T04:10:37.560Z,417.00
2023-04-23T04:11:37.559Z,418.00
2023-04-23T04:12:37.554Z,418.00
2023-04-23T04:13:37.609Z,418.00
2023-04-23T04:14:37.553Z,416.00
2023-04-23T04:15:37.559Z,415.00
2023-04-23T04:16:37.588Z,413.00
2023-04-23T04:17:37.619Z,413.00
2023-04-23T04:18:37.575Z,412.00
2023-04-23T04:19:37.543Z,410.00
2023-04-23T04:20:37.561Z,408.00
2023-04-23T04:21:37.538Z,406.00
2023-04-23T04:22:37.573Z,405.00
2023-04-23T04:23:37.545Z,406.00
2023-04-23T04:24:37.511Z,404.00
2023-04-23T04:25:37.541Z,404.00
2023-04-23T04:26:37.536Z,404.00
2023-04-23T04:27:37.605Z,405.00
2023-04-23T04:28:37.546Z,407.00
2023-04-23T04:29:37.559Z,407.00
2023-04-23T04:30:37.525Z,409.00
2023-04-23T04:31:37.522Z,409.00
2023-04-23T04:32:37.569Z,410.00
2023-04-23T04:33:37.517Z,411.00
2023-04-23T04:34:37.511Z,409.00
2023-04-23T04:35:37.508Z,408.00
2023-04-23T04:36:37.506Z,409.00
2023-04-23T04:37:37.488Z,409.00
2023-04-23T04:38:37.486Z,411.00
2023-04-23T04:39:37.489Z,412.00
2023-04-23T04:40:37.509Z,412.00
2023-04-23T04:41:37.507Z,411.00
2023-04-23T04:42:37.515Z,408.00
2023-04-23T04:43:37.483Z,410.00
2023-04-23T04:44:37.765Z,412.00
2023-04-23T04:45:37.475Z,412.00
2023-04-23T04:46:37.542Z,413.00
2023-04-23T04:47:37.492Z,413.00
2023-04-23T04:48:37.476Z,414.00
2023-04-23T04:49:37.473Z,413.00
2023-04-23T04:50:37.469Z,412.00
2023-04-23T04:51:37.433Z,409.00
2023-04-23T04:52:37.420Z,408.00
2023-04-23T04:53:37.424Z,409.00
2023-04-23T04:54:37.453Z,410.00
2023-04-23T04:55:37.440Z,408.00
2023-04-23T04:56:37.426Z,409.00
2023-04-23T04:57:37.419Z,410.00
2023-04-23T04:58:37.448Z,412.00
2023-04-23T04:59:37.412Z,411.00
2023-04-23T05:00:37.442Z,412.00
2023-04-23T05:01:37.558Z,412.00
2023-04-23T05:02:37.523Z,413.00
2023-04-23T05:03:37.574Z,412.00
2023-04-23T05:04:37.411Z,413.00
2023-04-23T05:05:37.424Z,415.00
2023-04-23T05:06:37.399Z,415.00
2023-04-23T05:07:37.399Z,417.00
2023-04-23T05:08:37.417Z,419.00
2023-04-23T05:09:37.432Z,419.00
2023-04-23T05:10:37.373Z,419.00
2023-04-23T05:11:37.355Z,420.00
2023-04-23T05:12:37.385Z,420.00
2023-04-23T05:13:37.350Z,417.00
2023-04-23T05:14:37.346Z,417.00
2023-04-23T05:15:37.333Z,418.00
2023-04-23T05:16:37.409Z,417.00
2023-04-23T05:17:37.365Z,416.00
2023-04-23T05:18:37.378Z,414.00
2023-04-23T05:19:37.340Z,414.00
2023-04-23T05:20:37.336Z,414.00
2023-04-23T05:21:37.344Z,416.00
2023-04-23T05:22:37.310Z,415.00
2023-04-23T05:23:37.372Z,414.00
2023-04-23T05:24:37.387Z,414.00
2023-04-23T05:25:37.344Z,414.00
2023-04-23T05:26:37.341Z,414.00
2023-04-23T05:27:37.357Z,416.00
2023-04-23T05:28:37.364Z,415.00
2023-04-23T05:29:37.324Z,412.00
2023-04-23T05:30:37.328Z,413.00
2023-04-23T05:31:37.406Z,415.00
2023-04-23T05:32:37.389Z,414.00
2023-04-23T05:33:48.685Z,413.00
2023-04-23T05:34:38.418Z,413.00
2023-04-23T05:35:37.327Z,414.00
2023-04-23T05:36:37.301Z,415.00
2023-04-23T05:37:37.313Z,415.00
2023-04-23T05:38:37.297Z,416.00
2023-04-23T05:39:37.280Z,416.00
2023-04-23T05:40:37.301Z,417.00
2023-04-23T05:41:37.295Z,417.00
2023-04-23T05:42:37.243Z,416.00
2023-04-23T05:43:37.924Z,415.00
2023-04-23T05:44:37.229Z,417.00
2023-04-23T05:45:37.268Z,419.00
2023-04-23T05:46:37.250Z,416.00
2023-04-23T05:47:37.518Z,414.00
2023-04-23T05:48:37.210Z,413.00
2023-04-23T05:49:37.184Z,413.00
2023-04-23T05:50:37.215Z,413.00
2023-04-23T05:51:37.170Z,413.00
2023-04-23T05:52:37.179Z,413.00
2023-04-23T05:53:37.186Z,414.00
2023-04-23T05:54:37.160Z,412.00
2023-04-23T05:55:37.143Z,414.00
2023-04-23T05:56:37.174Z,415.00
2023-04-23T05:57:37.171Z,416.00
2023-04-23T05:58:37.164Z,417.00
2023-04-23T05:59:37.164Z,419.00
2023-04-23T06:00:37.130Z,419.00
2023-04-23T06:01:37.130Z,420.00
2023-04-23T06:02:37.186Z,418.00
2023-04-23T06:03:37.262Z,417.00
2023-04-23T06:04:37.383Z,418.00
2023-04-23T06:05:37.153Z,416.00
2023-04-23T06:06:37.067Z,417.00
2023-04-23T06:07:37.079Z,419.00
2023-04-23T06:08:37.094Z,419.00
2023-04-23T06:09:37.070Z,420.00
2023-04-23T06:10:37.088Z,420.00
2023-04-23T06:11:37.073Z,422.00
2023-04-23T06:12:37.046Z,421.00
2023-04-23T06:13:37.067Z,423.00
2023-04-23T06:14:37.053Z,421.00
2023-04-23T06:15:37.031Z,421.00
2023-04-23T06:16:37.000Z,421.00
2023-04-23T06:17:37.170Z,422.00
2023-04-23T06:18:37.016Z,420.00
2023-04-23T06:19:36.993Z,420.00
2023-04-23T06:20:37.003Z,421.00
2023-04-23T06:21:36.986Z,422.00
2023-04-23T06:22:37.047Z,425.00
2023-04-23T06:23:36.990Z,426.00
2023-04-23T06:24:37.035Z,424.00
2023-04-23T06:25:36.976Z,422.00
2023-04-23T06:26:36.954Z,423.00
2023-04-23T06:27:36.959Z,420.00
2023-04-23T06:28:36.952Z,421.00
2023-04-23T06:29:36.925Z,420.00
2023-04-23T06:30:36.945Z,419.00
2023-04-23T06:31:36.934Z,417.00
2023-04-23T06:32:36.932Z,417.00
2023-04-23T06:33:36.896Z,417.00
2023-04-23T06:34:44.004Z,418.00
2023-04-23T06:35:37.858Z,418.00
2023-04-23T06:36:36.900Z,418.00
2023-04-23T06:37:36.874Z,417.00
2023-04-23T06:38:36.876Z,417.00
2023-04-23T06:39:36.836Z,418.00
2023-04-23T06:40:36.856Z,419.00
2023-04-23T06:41:36.834Z,422.00
2023-04-23T06:42:36.819Z,423.00
2023-04-23T06:43:36.960Z,422.00
2023-04-23T06:44:36.850Z,423.00
2023-04-23T06:45:36.828Z,424.00
2023-04-23T06:46:36.845Z,425.00
2023-04-23T06:47:36.860Z,423.00
2023-04-23T06:48:36.776Z,422.00
2023-04-23T06:49:36.774Z,421.00
2023-04-23T06:50:36.782Z,420.00
2023-04-23T06:51:36.758Z,421.00
2023-04-23T06:52:36.742Z,423.00
2023-04-23T06:53:36.767Z,425.00
2023-04-23T06:54:36.773Z,427.00
2023-04-23T06:55:36.734Z,426.00
2023-04-23T06:56:36.766Z,426.00
2023-04-23T06:57:36.728Z,425.00
2023-04-23T06:58:36.704Z,423.00
2023-04-23T06:59:36.734Z,423.00
2023-04-23T07:00:36.720Z,422.00
2023-04-23T07:01:36.714Z,421.00
2023-04-23T07:02:37.021Z,423.00
2023-04-23T07:03:36.713Z,421.00
2023-04-23T07:04:36.819Z,419.00
2023-04-23T07:05:36.662Z,420.00
2023-04-23T07:06:36.692Z,417.00
2023-04-23T07:07:36.659Z,417.00
2023-04-23T07:08:36.645Z,418.00
2023-04-23T07:09:36.660Z,418.00
2023-04-23T07:10:36.656Z,416.00
2023-04-23T07:11:36.627Z,416.00
2023-04-23T07:12:36.801Z,414.00
2023-04-23T07:13:36.629Z,413.00
2023-04-23T07:14:36.628Z,413.00
2023-04-23T07:15:36.629Z,414.00
2023-04-23T07:16:36.664Z,413.00
2023-04-23T07:17:36.664Z,414.00
2023-04-23T07:18:36.637Z,414.00
2023-04-23T07:19:36.634Z,414.00
2023-04-23T07:20:36.645Z,414.00
2023-04-23T07:21:36.656Z,414.00
2023-04-23T07:22:36.688Z,412.00
2023-04-23T07:23:36.682Z,410.00
2023-04-23T07:24:36.710Z,410.00
2023-04-23T07:25:36.750Z,411.00
2023-04-23T07:26:36.778Z,412.00
2023-04-23T07:27:36.801Z,412.00
2023-04-23T07:28:36.880Z,413.00
2023-04-23T07:29:36.911Z,412.00
2023-04-23T07:30:36.949Z,416.00
2023-04-23T07:31:37.044Z,415.00
2023-04-23T07:32:37.090Z,415.00
2023-04-23T07:33:37.105Z,415.00
2023-04-23T07:34:38.064Z,415.00
2023-04-23T07:35:37.197Z,416.00
2023-04-23T07:36:37.225Z,418.00
2023-04-23T07:37:37.268Z,419.00
2023-04-23T07:38:37.345Z,419.00
2023-04-23T07:39:37.394Z,420.00
2023-04-23T07:40:37.709Z,422.00
2023-04-23T07:41:37.512Z,422.00
2023-04-23T07:42:37.575Z,423.00
2023-04-23T07:43:37.628Z,422.00
2023-04-23T07:44:37.672Z,423.00
2023-04-23T07:45:37.783Z,425.00
2023-04-23T07:46:37.810Z,424.00
2023-04-23T07:47:37.921Z,424.00
2023-04-23T07:48:37.928Z,424.00
2023-04-23T07:49:37.960Z,421.00
2023-04-23T07:50:38.013Z,421.00
2023-04-23T07:51:38.089Z,420.00
2023-04-23T07:52:38.100Z,421.00
2023-04-23T07:53:38.191Z,421.00
2023-04-23T07:54:38.202Z,422.00
2023-04-23T07:55:38.298Z,421.00
2023-04-23T07:56:38.369Z,421.00
2023-04-23T07:57:38.391Z,421.00
2023-04-23T07:58:38.457Z,421.00
2023-04-23T07:59:38.535Z,422.00
2023-04-23T08:00:38.597Z,420.00
2023-04-23T08:01:38.624Z,419.00
2023-04-23T08:02:38.824Z,423.00
2023-04-23T08:03:38.935Z,422.00
2023-04-23T08:04:38.943Z,424.00
2023-04-23T08:05:39.047Z,421.00
2023-04-23T08:06:38.952Z,422.00
2023-04-23T08:07:39.002Z,420.00
2023-04-23T08:08:39.120Z,421.00
2023-04-23T08:09:39.953Z,423.00
2023-04-23T08:10:39.199Z,421.00
2023-04-23T08:11:39.263Z,419.00
2023-04-23T08:12:39.335Z,421.00
2023-04-23T08:13:39.408Z,422.00
2023-04-23T08:14:39.428Z,422.00
2023-04-23T08:15:39.483Z,421.00
2023-04-23T08:16:39.603Z,419.00
2023-04-23T08:17:39.668Z,420.00
2023-04-23T08:18:39.888Z,417.00
2023-04-23T08:19:39.950Z,417.00
2023-04-23T08:20:39.775Z,419.00
2023-04-23T08:21:39.870Z,420.00
2023-04-23T08:22:39.889Z,419.00
2023-04-23T08:23:39.984Z,419.00
2023-04-23T08:24:40.050Z,419.00
2023-04-23T08:25:40.090Z,419.00
2023-04-23T08:26:40.146Z,419.00
2023-04-23T08:27:40.250Z,422.00
2023-04-23T08:28:40.296Z,421.00
2023-04-23T08:29:40.546Z,421.00
2023-04-23T08:30:40.381Z,421.00
2023-04-23T08:31:40.549Z,421.00
2023-04-23T08:32:40.532Z,423.00
2023-04-23T08:33:40.574Z,422.00
2023-04-23T08:34:40.610Z,420.00
2023-04-23T08:35:40.693Z,419.00
2023-04-23T08:36:40.762Z,419.00
2023-04-23T08:37:40.836Z,417.00
2023-04-23T08:38:40.906Z,418.00
2023-04-23T08:39:40.977Z,418.00
2023-04-23T08:40:40.986Z,416.00
2023-04-23T08:41:41.072Z,416.00
2023-04-23T08:42:41.130Z,416.00
2023-04-23T08:43:41.156Z,418.00
2023-04-23T08:44:41.255Z,418.00
2023-04-23T08:45:41.295Z,416.00
2023-04-23T08:46:41.420Z,414.00
2023-04-23T08:47:41.505Z,415.00
2023-04-23T08:48:41.444Z,415.00
2023-04-23T08:49:41.631Z,416.00
2023-04-23T08:50:41.570Z,416.00
2023-04-23T08:51:41.631Z,417.00
2023-04-23T08:52:41.714Z,414.00
2023-04-23T08:53:41.744Z,416.00
2023-04-23T08:54:41.783Z,418.00
2023-04-23T08:55:41.858Z,419.00
2023-04-23T08:56:41.891Z,421.00
2023-04-23T08:57:41.929Z,420.00
2023-04-23T08:58:42.013Z,419.00
2023-04-23T08:59:42.326Z,416.00
2023-04-23T09:00:42.170Z,413.00
2023-04-23T09:01:42.180Z,412.00
2023-04-23T09:02:42.333Z,413.00
2023-04-23T09:03:42.304Z,415.00
2023-04-23T09:04:42.297Z,414.00
2023-04-23T09:05:42.344Z,413.00
2023-04-23T09:06:42.391Z,414.00
2023-04-23T09:07:42.452Z,414.00
2023-04-23T09:08:42.500Z,414.00
2023-04-23T09:09:42.848Z,412.00
2023-04-23T09:10:42.581Z,410.00
2023-04-23T09:11:42.623Z,409.00
2023-04-23T09:12:42.725Z,409.00
2023-04-23T09:13:42.733Z,412.00
2023-04-23T09:14:43.040Z,411.00
2023-04-23T09:15:42.839Z,412.00
2023-04-23T09:16:42.958Z,412.00
2023-04-23T09:17:42.975Z,412.00
2023-04-23T09:18:43.016Z,414.00
2023-04-23T09:19:43.421Z,416.00
2023-04-23T09:20:43.078Z,418.00
2023-04-23T09:21:43.126Z,418.00
2023-04-23T09:22:45.310Z,419.00
2023-04-23T09:23:43.173Z,417.00
2023-04-23T09:24:43.190Z,419.00
2023-04-23T09:25:43.130Z,420.00
2023-04-23T09:26:43.129Z,418.00
2023-04-23T09:27:43.109Z,419.00
2023-04-23T09:28:43.094Z,416.00
2023-04-23T09:29:43.270Z,418.00
2023-04-23T09:30:43.096Z,417.00
2023-04-23T09:31:43.122Z,418.00
2023-04-23T09:32:43.138Z,419.00
2023-04-23T09:33:43.073Z,420.00
2023-04-23T09:34:43.073Z,423.00
2023-04-23T09:35:43.033Z,424.00
2023-04-23T09:36:43.040Z,426.00
2023-04-23T09:37:43.080Z,425.00
2023-04-23T09:38:43.026Z,424.00
2023-04-23T09:39:43.386Z,420.00
2023-04-23T09:40:43.028Z,420.00
2023-04-23T09:41:43.015Z,420.00
2023-04-23T09:42:42.980Z,421.00
2023-04-23T09:43:43.037Z,421.00
2023-04-23T09:44:42.997Z,419.00
2023-04-23T09:45:42.993Z,419.00
2023-04-23T09:46:42.984Z,420.00
2023-04-23T09:47:43.011Z,421.00
2023-04-23T09:48:42.945Z,419.00
2023-04-23T09:49:43.131Z,419.00
2023-04-23T09:50:42.931Z,421.00
2023-04-23T09:51:42.931Z,420.00
2023-04-23T09:52:42.938Z,418.00
2023-04-23T09:53:42.933Z,417.00
2023-04-23T09:54:42.932Z,417.00
2023-04-23T09:55:42.954Z,415.00
2023-04-23T09:56:42.894Z,414.00
2023-04-23T09:57:42.885Z,413.00
2023-04-23T09:58:42.902Z,414.00
2023-04-23T09:59:48.876Z,413.00
2023-04-23T10:00:43.871Z,412.00
2023-04-23T10:01:42.943Z,413.00
2023-04-23T10:02:42.969Z,412.00
2023-04-23T10:03:43.035Z,413.00
2023-04-23T10:04:43.034Z,413.00
2023-04-23T10:05:59.558Z,411.00
2023-04-23T10:06:50.170Z,412.00
2023-04-23T10:07:43.805Z,411.00
2023-04-23T10:08:42.825Z,409.00
2023-04-23T10:09:43.181Z,410.00
2023-04-23T10:10:57.507Z,412.00
2023-04-23T10:11:43.784Z,412.00
2023-04-23T10:12:54.233Z,412.00
2023-04-23T10:13:43.774Z,412.00
2023-04-23T10:14:42.778Z,408.00
2023-04-23T10:15:42.772Z,407.00
2023-04-23T10:16:49.065Z,408.00
2023-04-23T10:17:43.764Z,406.00
2023-04-23T10:18:42.747Z,405.00
2023-04-23T10:19:43.117Z,407.00
2023-04-23T10:20:42.748Z,411.00
2023-04-23T10:21:53.311Z,409.00
2023-04-23T10:22:43.719Z,410.00
2023-04-23T10:23:42.719Z,413.00
2023-04-23T10:24:42.691Z,415.00
2023-04-23T10:25:42.695Z,416.00
2023-04-23T10:26:42.694Z,416.00
2023-04-23T10:27:51.882Z,416.00
2023-04-23T10:28:43.689Z,416.00
2023-04-23T10:29:43.023Z,416.00
2023-04-23T10:30:42.621Z,417.00
2023-04-23T10:31:42.793Z,415.00
2023-04-23T10:32:42.683Z,416.00
2023-04-23T10:33:55.477Z,417.00
2023-04-23T10:34:43.612Z,416.00
2023-04-23T10:35:42.638Z,415.00
2023-04-23T10:36:42.609Z,415.00
2023-04-23T10:37:42.576Z,416.00
2023-04-23T10:38:54.934Z,415.00
2023-04-23T10:39:43.588Z,414.00
2023-04-23T10:40:42.574Z,413.00
2023-04-23T10:41:42.571Z,411.00
2023-04-23T10:42:42.559Z,412.00
2023-04-23T10:43:42.552Z,414.00
2023-04-23T10:44:56.716Z,414.00
2023-04-23T10:45:43.528Z,415.00
2023-04-23T10:46:42.619Z,417.00
2023-04-23T10:47:42.572Z,417.00
2023-04-23T10:48:42.506Z,418.00
2023-04-23T10:49:42.740Z,419.00
2023-04-23T10:51:02.078Z,418.00
2023-04-23T10:52:42.481Z,419.00
2023-04-23T10:53:42.503Z,418.00
2023-04-23T10:54:42.470Z,415.00
2023-04-23T10:55:42.445Z,415.00
2023-04-23T10:56:42.463Z,414.00
2023-04-23T10:57:42.425Z,415.00
2023-04-23T10:58:42.453Z,414.00
2023-04-23T10:59:42.657Z,414.00
2023-04-23T11:00:42.443Z,413.00
2023-04-23T11:01:42.452Z,412.00
2023-04-23T11:02:42.508Z,410.00
2023-04-23T11:03:44.551Z,411.00
2023-04-23T11:04:42.725Z,411.00
2023-04-23T11:05:42.648Z,411.00
2023-04-23T11:06:42.639Z,413.00
2023-04-23T11:07:42.662Z,413.00
2023-04-23T11:08:42.653Z,413.00
2023-04-23T11:09:43.051Z,413.00
2023-04-23T11:10:42.673Z,413.00
2023-04-23T11:11:42.700Z,411.00
2023-04-23T11:12:42.719Z,410.00
2023-04-23T11:13:42.755Z,410.00
2023-04-23T11:14:42.764Z,411.00
2023-04-23T11:15:42.794Z,412.00
2023-04-23T11:16:42.903Z,411.00
2023-04-23T11:17:42.802Z,412.00
2023-04-23T11:18:42.797Z,412.00
2023-04-23T11:19:43.214Z,409.00
2023-04-23T11:20:42.873Z,410.00
2023-04-23T11:21:42.871Z,411.00
2023-04-23T11:22:42.893Z,411.00
2023-04-23T11:23:42.897Z,413.00
2023-04-23T11:24:43.290Z,411.00
2023-04-23T11:25:42.922Z,411.00
2023-04-23T11:26:42.928Z,409.00
2023-04-23T11:27:42.969Z,410.00
2023-04-23T11:28:42.957Z,413.00
2023-04-23T11:29:43.327Z,413.00
2023-04-23T11:30:43.015Z,412.00
2023-04-23T11:31:58.395Z,410.00
2023-04-23T11:32:44.073Z,410.00
2023-04-23T11:33:42.961Z,410.00
2023-04-23T11:34:42.975Z,411.00
2023-04-23T11:35:42.985Z,409.00
2023-04-23T11:36:42.973Z,409.00
2023-04-23T11:37:42.959Z,409.00
2023-04-23T11:38:42.939Z,410.00
2023-04-23T11:39:43.229Z,410.00
2023-04-23T11:40:42.963Z,410.00
2023-04-23T11:41:42.916Z,409.00
2023-04-23T11:42:42.941Z,408.00
2023-04-23T11:43:42.949Z,410.00
2023-04-23T11:44:42.941Z,412.00
2023-04-23T11:45:42.923Z,414.00
2023-04-23T11:46:42.879Z,414.00
2023-04-23T11:47:42.883Z,414.00
2023-04-23T11:48:42.880Z,414.00
2023-04-23T11:49:43.205Z,414.00
2023-04-23T11:50:42.893Z,416.00
2023-04-23T11:51:42.880Z,417.00
2023-04-23T11:52:42.871Z,416.00
2023-04-23T11:53:42.829Z,415.00
2023-04-23T11:54:42.854Z,415.00
2023-04-23T11:55:42.817Z,414.00
2023-04-23T11:56:42.814Z,414.00
2023-04-23T11:57:42.840Z,413.00
2023-04-23T11:58:42.840Z,412.00
2023-04-23T11:59:43.071Z,414.00
2023-04-23T12:00:42.801Z,415.00
2023-04-23T12:01:42.779Z,414.00
2023-04-23T12:02:42.870Z,414.00
2023-04-23T12:03:42.813Z,413.00
2023-04-23T12:04:42.766Z,412.00
2023-04-23T12:05:42.804Z,412.00
2023-04-23T12:06:42.766Z,411.00
2023-04-23T12:07:42.751Z,410.00
2023-04-23T12:08:42.724Z,410.00
2023-04-23T12:09:42.966Z,410.00
2023-04-23T12:10:42.717Z,408.00
2023-04-23T12:11:42.733Z,407.00
2023-04-23T12:12:42.728Z,407.00
2023-04-23T12:13:42.731Z,409.00
2023-04-23T12:14:42.735Z,410.00
2023-04-23T12:15:42.722Z,410.00
2023-04-23T12:16:42.701Z,406.00
2023-04-23T12:17:42.777Z,406.00
2023-04-23T12:18:42.694Z,407.00
2023-04-23T12:19:43.069Z,408.00
2023-04-23T12:20:42.719Z,409.00
2023-04-23T12:21:42.697Z,409.00
2023-04-23T12:22:42.700Z,410.00
2023-04-23T12:23:42.695Z,410.00
2023-04-23T12:24:42.706Z,412.00
2023-04-23T12:25:42.717Z,410.00
2023-04-23T12:26:42.724Z,412.00
2023-04-23T12:27:42.805Z,412.00
2023-04-23T12:28:42.707Z,411.00
2023-04-23T12:29:43.165Z,411.00